createdAt,value
2023-02-17T00:00:20.178Z,6.10
2023-02-17T00:02:47.287Z,6.12
2023-02-17T00:05:14.541Z,6.13
2023-02-17T00:07:41.621Z,6.10
2023-02-17T00:10:09.134Z,6.10
2023-02-17T00:12:36.916Z,6.06
2023-02-17T00:15:04.253Z,6.02
2023-02-17T00:17:31.192Z,6.01
2023-02-17T00:19:58.330Z,5.99
2023-02-17T00:22:25.320Z,5.97
2023-02-17T00:24:52.400Z,5.95
2023-02-17T00:27:20.118Z,5.95
2023-02-17T00:29:47.159Z,5.96
2023-02-17T00:32:14.211Z,5.95
2023-02-17T00:34:42.677Z,5.93
2023-02-17T00:37:09.582Z,5.92
2023-02-17T00:39:36.606Z,5.92
2023-02-17T00:42:03.822Z,5.92
2023-02-17T00:44:30.775Z,5.90
2023-02-17T00:46:57.768Z,5.93
2023-02-17T00:49:26.750Z,5.96
2023-02-17T00:51:54.484Z,5.97
2023-02-17T00:54:21.591Z,6.02
2023-02-17T00:56:48.560Z,6.03
2023-02-17T00:59:15.607Z,6.05
2023-02-17T01:01:42.824Z,6.03
2023-02-17T01:04:10.354Z,6.14
2023-02-17T01:06:38.956Z,6.13
2023-02-17T01:09:09.266Z,6.18
2023-02-17T01:11:36.821Z,6.17
2023-02-17T01:14:06.472Z,6.11
2023-02-17T01:16:39.174Z,6.10
2023-02-17T01:19:09.227Z,6.03
2023-02-17T01:21:36.488Z,6.02
2023-02-17T01:24:06.013Z,6.00
2023-02-17T01:26:35.756Z,6.01
2023-02-17T01:29:05.111Z,6.03
2023-02-17T01:31:32.870Z,6.03
2023-02-17T01:34:02.487Z,6.03
2023-02-17T01:36:29.989Z,6.05
2023-02-17T01:38:56.927Z,6.08
2023-02-17T01:41:27.250Z,6.09
2023-02-17T01:44:12.459Z,6.13
2023-02-17T01:46:41.917Z,6.18
2023-02-17T01:49:24.489Z,6.26
2023-02-17T01:52:02.959Z,6.30
2023-02-17T01:54:54.523Z,6.38
2023-02-17T01:57:25.169Z,6.35
2023-02-17T01:59:52.866Z,6.34
2023-02-17T02:02:20.859Z,6.28
2023-02-17T02:04:51.541Z,6.27
2023-02-17T02:07:23.080Z,6.21
2023-02-17T02:09:54.231Z,6.19
2023-02-17T02:12:22.859Z,6.21
2023-02-17T02:14:51.086Z,6.19
2023-02-17T02:17:37.681Z,6.21
2023-02-17T02:20:13.889Z,6.24
2023-02-17T02:22:43.864Z,6.23
2023-02-17T02:25:31.982Z,6.28
2023-02-17T02:28:14.082Z,6.30
2023-02-17T02:31:01.256Z,6.37
2023-02-17T02:33:37.290Z,6.40
2023-02-17T02:36:21.204Z,6.47
2023-02-17T02:39:00.056Z,6.55
2023-02-17T02:41:33.576Z,6.60
2023-02-17T02:44:03.052Z,6.60
2023-02-17T02:46:29.973Z,6.62
2023-02-17T02:48:57.405Z,6.60
2023-02-17T02:51:39.068Z,6.59
2023-02-17T02:54:54.053Z,6.57
2023-02-17T02:57:36.975Z,6.62
2023-02-17T03:00:20.755Z,6.65
2023-02-17T03:03:28.983Z,6.52
2023-02-17T03:06:37.546Z,6.59
2023-02-17T03:09:13.054Z,6.62
2023-02-17T03:11:42.334Z,6.64
2023-02-17T03:14:13.150Z,6.68
2023-02-17T03:16:42.181Z,6.72
2023-02-17T03:19:10.050Z,6.73
2023-02-17T03:22:03.060Z,6.76
2023-02-17T03:24:32.374Z,6.83
2023-02-17T03:26:59.546Z,6.89
2023-02-17T03:29:26.466Z,6.96
2023-02-17T03:31:53.549Z,7.00
2023-02-17T03:34:20.726Z,7.06
2023-02-17T03:36:47.703Z,7.07
2023-02-17T03:39:14.899Z,7.08
2023-02-17T03:41:41.851Z,6.96
2023-02-17T03:44:08.832Z,6.94
2023-02-17T03:46:36.322Z,6.92
2023-02-17T03:49:03.369Z,6.89
2023-02-17T03:51:30.299Z,6.84
2023-02-17T03:53:57.244Z,6.81
2023-02-17T03:56:24.237Z,6.76
2023-02-17T03:58:51.232Z,6.77
2023-02-17T04:01:18.439Z,6.74
2023-02-17T04:03:45.452Z,6.80
2023-02-17T04:06:13.014Z,6.57
2023-02-17T04:08:40.672Z,6.71
2023-02-17T04:11:09.504Z,6.82
2023-02-17T04:13:37.500Z,6.89
2023-02-17T04:16:05.896Z,6.92
2023-02-17T04:18:33.106Z,6.97
2023-02-17T04:21:00.107Z,7.00
2023-02-17T04:23:27.661Z,7.00
2023-02-17T04:25:54.857Z,7.02
2023-02-17T04:28:22.982Z,6.97
2023-02-17T04:30:51.095Z,7.01
2023-02-17T04:33:18.981Z,7.03
2023-02-17T04:35:47.189Z,7.07
2023-02-17T04:38:14.345Z,7.01
2023-02-17T04:40:41.731Z,7.10
2023-02-17T04:43:08.799Z,7.13
2023-02-17T04:45:37.100Z,7.14
2023-02-17T04:48:03.962Z,7.18
2023-02-17T04:50:31.068Z,7.14
2023-02-17T04:52:58.215Z,7.23
2023-02-17T04:55:25.249Z,7.28
2023-02-17T04:57:52.362Z,7.25
2023-02-17T05:00:19.780Z,7.23
2023-02-17T05:02:46.921Z,7.27
2023-02-17T05:05:18.980Z,7.27
2023-02-17T05:07:47.691Z,7.29
2023-02-17T05:10:16.599Z,7.32
2023-02-17T05:12:43.629Z,7.34
2023-02-17T05:15:12.120Z,7.40
2023-02-17T05:17:39.213Z,7.45
2023-02-17T05:20:07.815Z,7.50
2023-02-17T05:22:34.972Z,7.49
2023-02-17T05:25:02.342Z,7.38
2023-02-17T05:27:29.534Z,7.31
2023-02-17T05:29:56.757Z,7.26
2023-02-17T05:32:24.451Z,7.18
2023-02-17T05:34:51.774Z,7.12
2023-02-17T05:37:19.018Z,7.11
2023-02-17T05:39:46.420Z,7.07
2023-02-17T05:42:13.733Z,7.00
2023-02-17T05:44:40.984Z,6.94
2023-02-17T05:47:08.337Z,6.87
2023-02-17T05:49:35.436Z,6.82
2023-02-17T05:52:02.983Z,6.75
2023-02-17T05:54:30.217Z,6.78
2023-02-17T05:56:57.348Z,6.73
2023-02-17T05:59:24.872Z,6.67
2023-02-17T06:01:52.183Z,6.62
2023-02-17T06:04:19.465Z,6.57
2023-02-17T06:06:46.802Z,6.56
2023-02-17T06:09:13.938Z,6.53
2023-02-17T06:11:41.134Z,6.49
2023-02-17T06:14:08.265Z,6.44
2023-02-17T06:16:35.502Z,6.42
2023-02-17T06:19:02.939Z,6.45
2023-02-17T06:21:30.101Z,6.41
2023-02-17T06:23:57.219Z,6.42
2023-02-17T06:26:24.568Z,6.42
2023-02-17T06:28:51.701Z,6.45
2023-02-17T06:31:18.907Z,6.47
2023-02-17T06:33:46.119Z,6.47
2023-02-17T06:36:13.335Z,6.52
2023-02-17T06:38:40.498Z,6.49
2023-02-17T06:41:07.854Z,6.56
2023-02-17T06:43:35.054Z,6.57
2023-02-17T06:46:02.208Z,6.67
2023-02-17T06:48:29.573Z,6.71
2023-02-17T06:50:56.612Z,6.80
2023-02-17T06:53:23.813Z,6.78
2023-02-17T06:55:50.945Z,6.89
2023-02-17T06:58:18.132Z,6.93
2023-02-17T07:00:45.172Z,6.95
2023-02-17T07:03:12.239Z,7.03
2023-02-17T07:05:40.534Z,7.19
2023-02-17T07:08:07.629Z,7.32
2023-02-17T07:10:35.096Z,7.40
2023-02-17T07:13:02.258Z,7.46
2023-02-17T07:15:29.496Z,7.59
2023-02-17T07:17:56.781Z,7.70
2023-02-17T07:20:23.977Z,7.79
2023-02-17T07:22:51.137Z,7.92
2023-02-17T07:25:18.298Z,8.02
2023-02-17T07:27:45.469Z,8.17
2023-02-17T07:30:13.250Z,8.31
2023-02-17T07:32:40.581Z,8.43
2023-02-17T07:35:08.144Z,8.52
2023-02-17T07:37:35.565Z,8.69
2023-02-17T07:40:02.987Z,8.82
2023-02-17T07:42:30.255Z,8.92
2023-02-17T07:44:57.454Z,9.02
2023-02-17T07:47:24.696Z,9.14
2023-02-17T07:49:51.863Z,9.19
2023-02-17T07:52:19.734Z,9.34
2023-02-17T07:54:46.893Z,9.43
2023-02-17T07:57:14.134Z,9.53
2023-02-17T07:59:41.453Z,9.63
2023-02-17T08:02:11.937Z,9.67
2023-02-17T08:04:39.372Z,9.72
2023-02-17T08:07:06.451Z,9.75
2023-02-17T08:09:52.256Z,9.80
2023-02-17T08:12:39.559Z,9.86
2023-02-17T08:15:09.747Z,9.95
2023-02-17T08:17:37.145Z,10.04
2023-02-17T08:20:08.776Z,10.10
2023-02-17T08:22:37.577Z,10.18
2023-02-17T08:25:06.537Z,10.26
2023-02-17T08:27:33.899Z,10.34
2023-02-17T08:30:01.251Z,10.43
2023-02-17T08:32:28.664Z,10.47
2023-02-17T08:34:57.134Z,10.54
2023-02-17T08:37:24.378Z,10.61
2023-02-17T08:39:51.640Z,10.71
2023-02-17T08:42:20.080Z,10.79
2023-02-17T08:44:47.602Z,10.86
2023-02-17T08:47:15.575Z,10.96
2023-02-17T08:49:42.818Z,11.10
2023-02-17T08:52:10.189Z,11.24
2023-02-17T08:54:37.895Z,11.42
2023-02-17T08:57:05.287Z,11.62
2023-02-17T08:59:32.686Z,11.84
2023-02-17T09:02:00.163Z,12.05
2023-02-17T09:04:27.993Z,12.25
2023-02-17T09:06:57.003Z,12.46
2023-02-17T09:09:27.216Z,12.67
2023-02-17T09:11:59.487Z,12.91
2023-02-17T09:14:27.320Z,13.11
2023-02-17T09:16:55.551Z,13.28
2023-02-17T09:19:23.051Z,13.56
2023-02-17T09:21:50.429Z,13.81
2023-02-17T09:24:18.156Z,13.99
2023-02-17T09:26:45.856Z,14.19
2023-02-17T09:29:13.238Z,14.39
2023-02-17T09:31:40.952Z,14.59
2023-02-17T09:34:08.336Z,14.78
2023-02-17T09:36:40.141Z,14.97
2023-02-17T09:39:07.776Z,15.18
2023-02-17T09:41:41.774Z,15.33
2023-02-17T09:44:19.944Z,15.53
2023-02-17T09:47:02.258Z,15.74
2023-02-17T09:49:45.065Z,15.86
2023-02-17T09:52:21.790Z,16.00
2023-02-17T09:55:17.254Z,16.15
2023-02-17T09:57:54.593Z,16.30
2023-02-17T10:00:35.720Z,16.36
2023-02-17T10:03:07.305Z,16.47
2023-02-17T10:05:40.954Z,16.57
2023-02-17T10:08:19.674Z,16.62
2023-02-17T10:10:54.566Z,16.65
2023-02-17T10:13:24.151Z,16.64
2023-02-17T10:15:58.988Z,16.63
2023-02-17T10:18:37.612Z,16.71
2023-02-17T10:21:13.058Z,16.76
2023-02-17T10:23:40.693Z,16.71
2023-02-17T10:26:22.769Z,16.85
2023-02-17T10:28:57.741Z,17.01
2023-02-17T10:31:48.204Z,17.13
2023-02-17T10:34:38.696Z,17.20
2023-02-17T10:37:17.896Z,17.26
2023-02-17T10:39:53.636Z,17.21
2023-02-17T10:42:36.893Z,17.27
2023-02-17T10:45:12.094Z,17.17
2023-02-17T10:47:40.456Z,17.18
2023-02-17T10:50:22.012Z,17.07
2023-02-17T10:52:50.213Z,17.15
2023-02-17T10:55:24.063Z,17.16
2023-02-17T10:57:59.017Z,17.40
2023-02-17T11:00:27.377Z,17.66
2023-02-17T11:02:54.617Z,17.90
2023-02-17T11:05:31.017Z,18.25
2023-02-17T11:08:02.861Z,18.57
2023-02-17T11:10:36.467Z,18.78
2023-02-17T11:13:18.615Z,18.70
2023-02-17T11:15:48.254Z,18.86
2023-02-17T11:18:29.385Z,19.15
2023-02-17T11:21:06.215Z,19.22
2023-02-17T11:23:34.695Z,19.12
2023-02-17T11:26:03.922Z,19.06
2023-02-17T11:28:31.173Z,18.55
2023-02-17T11:31:02.804Z,18.45
2023-02-17T11:33:34.256Z,18.64
2023-02-17T11:36:02.063Z,18.57
2023-02-17T11:38:45.624Z,18.40
2023-02-17T11:41:12.978Z,18.27
2023-02-17T11:43:40.464Z,18.21
2023-02-17T11:46:25.223Z,18.27
2023-02-17T11:49:21.748Z,18.05
2023-02-17T11:52:13.659Z,18.06
2023-02-17T11:54:55.747Z,18.07
2023-02-17T11:57:30.674Z,17.51
2023-02-17T12:00:19.477Z,17.75
2023-02-17T12:13:47.896Z,17.07
2023-02-17T12:16:33.926Z,17.00
2023-02-17T12:19:23.939Z,16.96
2023-02-17T12:22:17.934Z,17.00
2023-02-17T12:25:03.539Z,17.02
2023-02-17T12:28:07.253Z,17.10
2023-02-17T12:30:34.586Z,17.18
2023-02-17T12:33:27.017Z,17.22
2023-02-17T12:36:08.215Z,17.18
2023-02-17T12:38:43.963Z,17.20
2023-02-17T12:41:19.143Z,17.23
2023-02-17T12:43:51.255Z,17.24
2023-02-17T12:46:33.498Z,17.30
2023-02-17T12:49:06.608Z,17.12
2023-02-17T12:51:51.778Z,17.20
2023-02-17T12:54:21.536Z,17.18
2023-02-17T12:57:04.775Z,17.14
2023-02-17T12:59:59.015Z,17.17
2023-02-17T13:02:26.849Z,17.15
2023-02-17T13:04:57.891Z,17.15
2023-02-17T13:07:47.826Z,17.09
2023-02-17T13:10:36.498Z,17.03
2023-02-17T13:13:24.498Z,16.97
2023-02-17T13:16:01.275Z,16.93
2023-02-17T13:18:35.181Z,16.88
2023-02-17T13:21:25.230Z,16.87
2023-02-17T13:24:05.146Z,16.84
2023-02-17T13:26:35.226Z,16.84
2023-02-17T13:29:19.111Z,16.80
2023-02-17T13:31:55.758Z,16.81
2023-02-17T13:34:29.950Z,16.68
2023-02-17T13:36:58.144Z,16.64
2023-02-17T13:39:28.900Z,16.69
2023-02-17T13:41:59.231Z,16.70
2023-02-17T13:44:34.055Z,16.70
2023-02-17T13:47:06.668Z,16.68
2023-02-17T13:49:35.453Z,16.70
2023-02-17T13:52:23.544Z,16.70
2023-02-17T13:54:56.100Z,16.72
2023-02-17T13:57:35.335Z,16.69
2023-02-17T14:00:29.060Z,16.72
2023-02-17T14:02:58.987Z,16.68
2023-02-17T14:05:43.941Z,16.68
2023-02-17T14:08:34.534Z,16.67
2023-02-17T14:11:10.824Z,16.62
2023-02-17T14:13:40.524Z,16.61
2023-02-17T14:16:08.875Z,16.61
2023-02-17T14:18:39.373Z,16.57
2023-02-17T14:21:10.578Z,16.52
2023-02-17T14:23:46.212Z,16.56
2023-02-17T14:26:27.376Z,16.54
2023-02-17T14:28:56.900Z,16.55
2023-02-17T14:31:24.893Z,16.52
2023-02-17T14:33:53.332Z,16.52
2023-02-17T14:36:30.601Z,16.50
2023-02-17T14:38:59.058Z,16.45
2023-02-17T14:41:27.056Z,16.41
2023-02-17T14:43:54.254Z,16.38
2023-02-17T14:46:21.726Z,16.34
2023-02-17T14:48:50.455Z,16.28
2023-02-17T14:51:20.944Z,16.25
2023-02-17T14:53:49.581Z,16.18
2023-02-17T14:56:30.635Z,16.14
2023-02-17T14:58:58.180Z,16.10
2023-02-17T15:01:26.821Z,16.05
2023-02-17T15:03:54.741Z,16.02
2023-02-17T15:06:32.551Z,15.98
2023-02-17T15:09:01.460Z,15.90
2023-02-17T15:11:34.701Z,15.85
2023-02-17T15:14:03.181Z,15.82
2023-02-17T15:16:31.102Z,15.78
2023-02-17T15:18:58.899Z,15.73
2023-02-17T15:21:27.501Z,15.74
2023-02-17T15:23:57.388Z,15.67
2023-02-17T15:26:24.986Z,15.54
2023-02-17T15:28:52.417Z,15.55
2023-02-17T15:31:21.603Z,15.51
2023-02-17T15:33:57.336Z,15.47
2023-02-17T15:36:25.739Z,15.43
2023-02-17T15:38:53.101Z,15.38
2023-02-17T15:41:24.059Z,15.32
2023-02-17T15:43:52.736Z,15.26
2023-02-17T15:46:23.309Z,15.15
2023-02-17T15:48:50.893Z,15.06
2023-02-17T15:51:20.254Z,14.98
2023-02-17T15:53:48.254Z,14.90
2023-02-17T15:56:23.744Z,14.83
2023-02-17T15:58:51.453Z,14.76
2023-02-17T16:01:30.894Z,14.70
2023-02-17T16:03:58.935Z,14.64
2023-02-17T16:06:27.181Z,14.56
2023-02-17T16:08:54.457Z,14.53
2023-02-17T16:11:23.425Z,14.47
2023-02-17T16:13:52.261Z,14.43
2023-02-17T16:16:24.590Z,14.41
2023-02-17T16:18:52.580Z,14.35
2023-02-17T16:21:19.931Z,14.32
2023-02-17T16:23:47.341Z,14.23
2023-02-17T16:26:20.192Z,14.18
2023-02-17T16:28:47.581Z,14.12
2023-02-17T16:31:14.857Z,14.02
2023-02-17T16:33:42.098Z,13.96
2023-02-17T16:36:20.703Z,13.89
2023-02-17T16:38:51.381Z,13.85
2023-02-17T16:41:20.619Z,13.81
2023-02-17T16:43:48.107Z,13.78
2023-02-17T16:46:36.699Z,13.75
2023-02-17T16:49:15.898Z,13.73
2023-02-17T16:51:43.223Z,13.63
2023-02-17T16:54:12.102Z,13.55
2023-02-17T16:56:48.546Z,13.50
2023-02-17T16:59:19.016Z,13.46
2023-02-17T17:01:47.072Z,13.42
2023-02-17T17:04:15.820Z,13.37
2023-02-17T17:06:45.819Z,13.35
2023-02-17T17:09:21.917Z,13.33
2023-02-17T17:11:49.820Z,13.29
2023-02-17T17:14:17.379Z,13.24
2023-02-17T17:16:51.001Z,13.21
2023-02-17T17:19:18.698Z,13.19
2023-02-17T17:21:45.893Z,13.17
2023-02-17T17:24:13.096Z,13.13
2023-02-17T17:26:45.381Z,13.09
2023-02-17T17:29:14.735Z,13.06
2023-02-17T17:31:42.485Z,13.02
2023-02-17T17:34:09.774Z,12.96
2023-02-17T17:36:43.467Z,12.91
2023-02-17T17:39:22.778Z,12.87
2023-02-17T17:41:51.504Z,12.84
2023-02-17T17:44:19.297Z,12.80
2023-02-17T17:46:46.860Z,12.78
2023-02-17T17:49:15.380Z,12.73
2023-02-17T17:51:42.575Z,12.71
2023-02-17T17:54:10.056Z,12.67
2023-02-17T17:56:42.740Z,12.62
2023-02-17T17:59:11.307Z,12.59
2023-02-17T18:01:38.650Z,12.54
2023-02-17T18:04:08.199Z,12.48
2023-02-17T18:06:44.781Z,12.45
2023-02-17T18:09:30.779Z,12.40
2023-02-17T18:12:02.622Z,12.38
2023-02-17T18:14:30.986Z,12.36
2023-02-17T18:16:58.349Z,12.32
2023-02-17T18:19:25.986Z,12.29
2023-02-17T18:21:53.464Z,12.30
2023-02-17T18:24:20.689Z,12.23
2023-02-17T18:26:48.154Z,12.20
2023-02-17T18:29:15.420Z,12.20
2023-02-17T18:31:42.675Z,12.14
2023-02-17T18:34:09.975Z,12.10
2023-02-17T18:36:38.032Z,12.03
2023-02-17T18:39:05.934Z,11.97
2023-02-17T18:41:34.970Z,11.96
2023-02-17T18:44:05.338Z,11.93
2023-02-17T18:46:36.409Z,11.89
2023-02-17T18:49:03.772Z,11.87
2023-02-17T18:51:31.215Z,11.87
2023-02-17T18:54:00.253Z,11.85
2023-02-17T18:56:30.104Z,11.85
2023-02-17T18:58:58.091Z,11.85
2023-02-17T19:01:35.369Z,11.84
2023-02-17T19:04:02.982Z,11.84
2023-02-17T19:06:34.657Z,11.82
2023-02-17T19:09:04.483Z,11.85
2023-02-17T19:11:33.894Z,11.89
2023-02-17T19:14:02.214Z,11.89
2023-02-17T19:16:31.693Z,11.92
2023-02-17T19:19:00.876Z,11.91
2023-02-17T19:21:28.132Z,11.95
2023-02-17T19:23:55.462Z,11.98
2023-02-17T19:26:23.254Z,12.01
2023-02-17T19:28:50.532Z,12.00
2023-02-17T19:31:20.988Z,11.88
2023-02-17T19:33:48.397Z,11.90
2023-02-17T19:36:20.289Z,11.93
2023-02-17T19:38:48.653Z,11.92
2023-02-17T19:41:16.657Z,12.04
2023-02-17T19:43:44.212Z,12.03
2023-02-17T19:46:16.199Z,12.09
2023-02-17T19:48:43.502Z,12.12
2023-02-17T19:51:12.655Z,12.14
2023-02-17T19:53:41.022Z,12.05
2023-02-17T19:56:19.823Z,12.02
2023-02-17T19:58:47.784Z,11.96
2023-02-17T20:01:18.147Z,11.94
2023-02-17T20:03:45.820Z,11.91
2023-02-17T20:06:18.945Z,11.91
2023-02-17T20:08:46.824Z,11.81
2023-02-17T20:11:14.943Z,11.83
2023-02-17T20:13:45.979Z,11.84
2023-02-17T20:16:15.840Z,11.91
2023-02-17T20:18:45.945Z,11.97
2023-02-17T20:21:19.414Z,12.01
2023-02-17T20:23:46.882Z,12.06
2023-02-17T20:26:23.920Z,12.00
2023-02-17T20:28:52.108Z,11.93
2023-02-17T20:31:19.307Z,11.88
2023-02-17T20:33:47.696Z,11.80
2023-02-17T20:36:15.454Z,11.69
2023-02-17T20:38:42.774Z,11.66
2023-02-17T20:41:14.336Z,11.59
2023-02-17T20:43:41.814Z,11.55
2023-02-17T20:46:23.949Z,11.51
2023-02-17T20:48:51.777Z,11.46
2023-02-17T20:51:20.028Z,11.46
2023-02-17T20:53:47.300Z,11.46
2023-02-17T20:56:18.057Z,11.45
2023-02-17T20:58:46.183Z,11.45
2023-02-17T21:01:13.630Z,11.45
2023-02-17T21:03:40.954Z,11.46
2023-02-17T21:06:28.221Z,11.46
2023-02-17T21:09:01.659Z,11.45
2023-02-17T21:11:29.464Z,11.47
2023-02-17T21:13:56.742Z,11.48
2023-02-17T21:16:28.521Z,11.50
2023-02-17T21:18:55.821Z,11.55
2023-02-17T21:21:23.103Z,11.58
2023-02-17T21:23:50.464Z,11.64
2023-02-17T21:26:17.784Z,11.73
2023-02-17T21:28:46.256Z,11.76
2023-02-17T21:31:15.127Z,11.80
2023-02-17T21:33:43.738Z,11.86
2023-02-17T21:36:16.906Z,11.89
2023-02-17T21:38:45.040Z,11.94
2023-02-17T21:41:15.774Z,12.00
2023-02-17T21:44:02.140Z,12.05
2023-02-17T21:46:30.593Z,12.11
2023-02-17T21:48:59.878Z,12.18
2023-02-17T21:51:28.018Z,12.21
2023-02-17T21:53:55.712Z,12.20
2023-02-17T21:56:23.699Z,12.21
2023-02-17T21:58:54.188Z,12.22
2023-02-17T22:01:24.494Z,12.23
2023-02-17T22:03:52.030Z,12.24
2023-02-17T22:06:22.264Z,12.26
2023-02-17T22:08:49.735Z,12.31
2023-02-17T22:11:20.501Z,12.32
2023-02-17T22:13:48.002Z,12.36
2023-02-17T22:16:15.518Z,12.41
2023-02-17T22:18:43.092Z,12.48
2023-02-17T22:21:13.340Z,12.55
2023-02-17T22:23:41.052Z,12.61
2023-02-17T22:26:16.095Z,12.65
2023-02-17T22:28:44.055Z,12.65
2023-02-17T22:31:16.341Z,12.68
2023-02-17T22:33:44.618Z,12.72
2023-02-17T22:36:18.094Z,12.67
2023-02-17T22:38:46.014Z,12.78
2023-02-17T22:41:16.945Z,12.87
2023-02-17T22:43:46.378Z,12.94
2023-02-17T22:46:16.587Z,12.96
2023-02-17T22:48:45.661Z,13.02
2023-02-17T22:51:16.814Z,13.09
2023-02-17T22:53:44.214Z,13.13
2023-02-17T22:56:11.454Z,13.19
2023-02-17T22:58:39.053Z,13.22
2023-02-17T23:01:11.573Z,13.22
2023-02-17T23:03:39.058Z,13.21
2023-02-17T23:06:21.022Z,13.20
2023-02-17T23:08:49.413Z,13.20
2023-02-17T23:11:40.336Z,13.21
2023-02-17T23:14:08.413Z,13.03
2023-02-17T23:16:35.935Z,13.07
2023-02-17T23:19:07.540Z,12.96
2023-02-17T23:21:35.216Z,12.76
2023-02-17T23:24:03.306Z,12.81
2023-02-17T23:26:30.739Z,12.87
2023-02-17T23:28:57.954Z,12.88
2023-02-17T23:31:25.238Z,12.77
2023-02-17T23:33:52.619Z,12.74
2023-02-17T23:36:19.818Z,12.75
2023-02-17T23:38:47.024Z,12.70
2023-02-17T23:41:14.348Z,12.72
2023-02-17T23:43:41.902Z,12.68
2023-02-17T23:46:09.552Z,12.63
2023-02-17T23:48:37.061Z,12.54
2023-02-17T23:51:06.069Z,12.47
2023-02-17T23:53:33.341Z,12.39
2023-02-17T23:56:09.548Z,12.35
2023-02-17T23:58:37.188Z,12.29
